createdAt,value
2022-08-17T00:01:51.238Z,63.69
2022-08-17T00:04:19.926Z,63.74
2022-08-17T00:06:49.037Z,63.56
2022-08-17T00:09:18.632Z,64.12
2022-08-17T00:12:34.609Z,63.70
2022-08-17T00:14:36.474Z,63.79
2022-08-17T00:17:04.847Z,63.81
2022-08-17T00:19:33.130Z,63.64
2022-08-17T00:22:32.591Z,64.89
2022-08-17T00:24:50.663Z,64.28
2022-08-17T00:27:18.383Z,64.46
2022-08-17T00:29:46.865Z,65.19
2022-08-17T00:33:22.893Z,65.20
2022-08-17T00:35:04.714Z,65.41
2022-08-17T00:37:31.991Z,65.05
2022-08-17T00:39:59.964Z,65.27
2022-08-17T00:42:30.921Z,65.93
2022-08-17T00:44:58.892Z,66.27
2022-08-17T00:47:26.553Z,65.59
2022-08-17T00:49:54.314Z,66.17
2022-08-17T00:52:25.460Z,66.78
2022-08-17T00:54:54.074Z,66.58
2022-08-17T00:57:23.807Z,66.82
2022-08-17T01:00:01.956Z,67.32
2022-08-17T01:02:43.077Z,67.70
2022-08-17T01:05:14.839Z,67.04
2022-08-17T01:07:42.905Z,67.44
2022-08-17T01:10:58.521Z,67.04
2022-08-17T01:13:02.628Z,67.83
2022-08-17T01:15:31.294Z,67.67
2022-08-17T01:17:58.657Z,67.80
2022-08-17T01:20:26.664Z,67.93
2022-08-17T01:22:54.373Z,68.19
2022-08-17T01:25:22.492Z,68.29
2022-08-17T01:27:50.137Z,68.55
2022-08-17T01:30:57.060Z,68.17
2022-08-17T01:33:06.011Z,68.31
2022-08-17T01:35:33.279Z,68.69
2022-08-17T01:38:00.553Z,68.77
2022-08-17T01:40:31.386Z,68.50
2022-08-17T01:43:00.162Z,68.40
2022-08-17T01:45:30.394Z,68.90
2022-08-17T01:47:57.993Z,68.40
2022-08-17T01:50:30.258Z,68.66
2022-08-17T01:53:01.961Z,68.84
2022-08-17T01:55:33.284Z,69.19
2022-08-17T01:58:00.647Z,69.20
2022-08-17T02:00:47.815Z,69.90
2022-08-17T02:03:21.522Z,69.70
2022-08-17T02:05:49.422Z,69.88
2022-08-17T02:08:20.162Z,69.87
2022-08-17T02:10:48.871Z,69.88
2022-08-17T02:13:16.817Z,69.91
2022-08-17T02:15:44.371Z,69.53
2022-08-17T02:18:11.971Z,69.51
2022-08-17T02:20:42.679Z,69.74
2022-08-17T02:23:11.918Z,69.70
2022-08-17T02:25:39.932Z,69.55
2022-08-17T02:28:07.357Z,70.10
2022-08-17T02:31:02.001Z,69.66
2022-08-17T02:33:22.714Z,69.81
2022-08-17T02:35:50.290Z,69.87
2022-08-17T02:38:17.846Z,70.11
2022-08-17T02:40:45.402Z,70.73
2022-08-17T02:43:13.805Z,69.97
2022-08-17T02:45:41.333Z,70.06
2022-08-17T02:48:08.822Z,69.97
2022-08-17T02:50:36.223Z,70.05
2022-08-17T02:53:04.818Z,70.86
2022-08-17T02:55:36.593Z,70.88
2022-08-17T02:58:04.443Z,71.06
2022-08-17T03:00:36.377Z,71.14
2022-08-17T03:03:05.159Z,71.17
2022-08-17T03:05:33.946Z,71.24
2022-08-17T03:08:01.428Z,71.50
2022-08-17T03:10:29.918Z,71.16
2022-08-17T03:12:57.473Z,70.65
2022-08-17T03:15:26.574Z,70.97
2022-08-17T03:17:54.876Z,71.46
2022-08-17T03:20:22.779Z,70.80
2022-08-17T03:22:53.068Z,70.71
2022-08-17T03:25:25.445Z,70.80
2022-08-17T03:27:53.166Z,71.21
2022-08-17T03:30:24.842Z,70.51
2022-08-17T03:32:53.532Z,71.18
2022-08-17T03:35:22.287Z,70.47
2022-08-17T03:37:52.436Z,70.37
2022-08-17T03:40:34.556Z,70.19
2022-08-17T03:43:18.919Z,71.04
2022-08-17T03:46:04.933Z,71.03
2022-08-17T03:48:51.564Z,71.17
2022-08-17T03:51:38.939Z,71.00
2022-08-17T03:54:24.826Z,71.19
2022-08-17T03:57:12.675Z,71.70
2022-08-17T03:59:41.410Z,71.37
2022-08-17T04:02:14.273Z,71.55
2022-08-17T04:04:41.584Z,72.16
2022-08-17T04:07:09.715Z,71.94
2022-08-17T04:09:37.394Z,72.01
2022-08-17T04:12:05.318Z,71.74
2022-08-17T04:14:53.381Z,72.18
2022-08-17T04:17:23.105Z,71.98
2022-08-17T04:19:54.004Z,71.56
2022-08-17T04:22:33.179Z,71.94
2022-08-17T04:25:03.171Z,72.52
2022-08-17T04:27:30.518Z,72.09
2022-08-17T04:29:58.787Z,72.03
2022-08-17T04:33:03.746Z,72.08
2022-08-17T04:35:17.437Z,71.31
2022-08-17T04:37:45.217Z,71.66
2022-08-17T04:40:31.807Z,70.94
2022-08-17T04:43:07.326Z,71.26
2022-08-17T04:45:34.940Z,71.31
2022-08-17T04:48:02.436Z,70.20
2022-08-17T04:50:29.835Z,70.94
2022-08-17T04:52:57.447Z,70.56
2022-08-17T04:55:25.071Z,70.59
2022-08-17T04:57:52.474Z,70.55
2022-08-17T05:00:20.938Z,70.41
2022-08-17T05:02:50.597Z,70.91
2022-08-17T05:05:21.842Z,70.44
2022-08-17T05:07:54.431Z,70.39
2022-08-17T05:10:22.570Z,70.19
2022-08-17T05:12:59.387Z,70.04
2022-08-17T05:15:27.376Z,68.98
2022-08-17T05:17:54.938Z,68.63
2022-08-17T05:20:23.943Z,68.51
2022-08-17T05:22:55.894Z,67.97
2022-08-17T05:25:25.713Z,67.40
2022-08-17T05:27:54.108Z,66.46
2022-08-17T05:30:22.121Z,66.33
2022-08-17T05:32:52.559Z,66.49
2022-08-17T05:35:20.200Z,65.44
2022-08-17T05:37:47.550Z,65.59
2022-08-17T05:40:15.272Z,65.17
2022-08-17T05:42:42.728Z,64.85
2022-08-17T05:45:10.779Z,64.56
2022-08-17T05:47:39.629Z,64.27
2022-08-17T05:50:09.507Z,63.21
2022-08-17T05:52:47.044Z,63.25
2022-08-17T05:55:27.165Z,62.81
2022-08-17T05:58:13.464Z,62.24
2022-08-17T06:00:53.669Z,62.06
2022-08-17T06:03:39.628Z,61.69
2022-08-17T06:06:31.227Z,62.76
2022-08-17T06:09:09.844Z,62.06
2022-08-17T06:11:44.012Z,61.37
2022-08-17T06:14:17.108Z,60.50
2022-08-17T06:16:46.532Z,59.65
2022-08-17T06:19:13.916Z,59.26
2022-08-17T06:21:43.845Z,58.42
2022-08-17T06:24:14.022Z,58.10
2022-08-17T06:26:44.317Z,58.19
2022-08-17T06:29:37.241Z,58.04
2022-08-17T06:32:06.324Z,56.67
2022-08-17T06:34:34.120Z,55.55
2022-08-17T06:37:14.963Z,54.27
2022-08-17T06:40:07.270Z,53.19
2022-08-17T06:43:02.054Z,50.69
2022-08-17T06:45:49.558Z,47.86
2022-08-17T06:48:25.218Z,46.97
2022-08-17T06:50:54.964Z,45.36
2022-08-17T06:53:51.897Z,44.86
2022-08-17T06:56:53.547Z,46.19
2022-08-17T06:59:54.322Z,47.64
2022-08-17T07:02:28.885Z,47.40
2022-08-17T07:05:01.784Z,47.91
2022-08-17T07:07:48.054Z,47.24
2022-08-17T07:10:17.399Z,44.08
2022-08-17T07:12:45.892Z,43.32
2022-08-17T07:15:16.647Z,42.58
2022-08-17T07:17:47.420Z,42.73
2022-08-17T07:20:22.728Z,43.33
2022-08-17T07:23:01.978Z,44.29
2022-08-17T07:25:30.534Z,42.10
2022-08-17T07:28:00.707Z,42.28
2022-08-17T07:30:50.365Z,40.18
2022-08-17T07:33:20.176Z,39.63
2022-08-17T07:35:48.484Z,41.35
2022-08-17T07:38:24.988Z,43.32
2022-08-17T07:41:02.652Z,43.95
2022-08-17T07:43:36.590Z,42.11
2022-08-17T07:46:39.653Z,40.50
2022-08-17T07:49:10.191Z,41.81
2022-08-17T07:51:38.014Z,42.99
2022-08-17T07:54:22.194Z,44.58
2022-08-17T07:56:53.706Z,46.21
2022-08-17T07:59:33.435Z,47.73
2022-08-17T08:02:06.114Z,48.60
2022-08-17T08:05:00.217Z,49.12
2022-08-17T08:07:22.128Z,49.21
2022-08-17T08:10:11.492Z,48.95
2022-08-17T08:12:42.194Z,48.55
2022-08-17T08:15:14.176Z,47.93
2022-08-17T08:17:53.569Z,46.97
2022-08-17T08:20:51.723Z,47.33
2022-08-17T08:23:26.797Z,46.34
2022-08-17T08:26:00.417Z,47.55
2022-08-17T08:29:56.341Z,47.61
2022-08-17T08:32:50.380Z,47.52
2022-08-17T08:35:36.997Z,48.04
2022-08-17T08:38:15.606Z,47.92
2022-08-17T08:41:10.767Z,47.97
2022-08-17T08:44:03.744Z,48.77
2022-08-17T08:46:48.352Z,50.10
2022-08-17T08:49:45.259Z,49.95
2022-08-17T08:52:37.390Z,49.83
2022-08-17T08:55:14.204Z,49.08
2022-08-17T08:57:52.817Z,48.43
2022-08-17T09:00:26.056Z,48.96
2022-08-17T09:03:15.047Z,49.54
2022-08-17T09:05:57.895Z,50.03
2022-08-17T09:08:28.282Z,48.89
2022-08-17T09:11:07.004Z,49.18
2022-08-17T09:14:21.447Z,49.01
2022-08-17T09:17:02.184Z,49.57
2022-08-17T09:19:38.339Z,49.39
2022-08-17T09:22:17.580Z,49.59
2022-08-17T09:24:58.407Z,49.21
2022-08-17T09:27:50.477Z,49.56
2022-08-17T09:30:19.490Z,49.60
2022-08-17T09:32:52.076Z,49.60
2022-08-17T09:35:32.906Z,50.53
2022-08-17T09:38:13.916Z,49.60
2022-08-17T09:41:06.277Z,49.52
2022-08-17T09:43:54.137Z,49.29
2022-08-17T09:46:34.039Z,48.62
2022-08-17T09:49:35.667Z,48.39
2022-08-17T09:52:24.851Z,47.21
2022-08-17T09:54:54.875Z,47.32
2022-08-17T09:57:40.330Z,46.44
2022-08-17T10:00:17.358Z,46.15
2022-08-17T10:02:56.999Z,46.55
2022-08-17T10:05:47.044Z,46.20
2022-08-17T10:08:57.405Z,46.35
2022-08-17T10:12:00.144Z,46.29
2022-08-17T10:14:53.620Z,45.77
2022-08-17T10:17:38.203Z,46.18
2022-08-17T10:20:14.873Z,45.02
2022-08-17T10:23:17.060Z,45.89
2022-08-17T10:26:15.427Z,46.83
2022-08-17T10:29:22.859Z,46.54
2022-08-17T10:32:00.847Z,46.59
2022-08-17T10:34:41.908Z,47.04
2022-08-17T10:37:36.541Z,47.15
2022-08-17T10:40:10.516Z,47.35
2022-08-17T10:42:50.220Z,47.22
2022-08-17T10:45:36.762Z,47.65
2022-08-17T10:48:07.643Z,46.79
2022-08-17T10:50:59.888Z,46.87
2022-08-17T10:53:33.694Z,46.71
2022-08-17T10:56:13.504Z,46.16
2022-08-17T10:58:54.116Z,45.94
2022-08-17T11:01:58.326Z,46.65
2022-08-17T11:04:58.657Z,46.38
2022-08-17T11:08:01.665Z,46.50
2022-08-17T11:11:06.812Z,46.52
2022-08-17T11:13:44.991Z,46.95
2022-08-17T11:16:32.596Z,46.85
2022-08-17T11:19:26.530Z,45.93
2022-08-17T11:22:18.896Z,44.63
2022-08-17T11:24:51.284Z,43.40
2022-08-17T11:27:36.062Z,43.58
2022-08-17T11:30:08.104Z,43.92
2022-08-17T11:32:47.533Z,44.39
2022-08-17T11:35:21.822Z,43.90
2022-08-17T11:38:02.922Z,44.26
2022-08-17T11:41:02.522Z,44.18
2022-08-17T11:43:45.708Z,43.08
2022-08-17T11:46:59.122Z,42.38
2022-08-17T11:50:17.694Z,42.41
2022-08-17T11:52:50.537Z,42.97
2022-08-17T11:55:37.548Z,42.83
2022-08-17T11:58:37.425Z,44.65
2022-08-17T12:01:16.229Z,46.41
2022-08-17T12:03:54.198Z,47.96
2022-08-17T12:06:35.190Z,49.24
2022-08-17T12:09:20.472Z,50.47
2022-08-17T12:12:13.082Z,50.80
2022-08-17T12:15:10.497Z,50.01
2022-08-17T12:17:42.761Z,49.64
2022-08-17T12:20:23.447Z,48.29
2022-08-17T12:23:18.626Z,47.79
2022-08-17T12:26:19.946Z,46.76
2022-08-17T12:28:51.821Z,46.13
2022-08-17T12:31:26.543Z,45.69
2022-08-17T12:33:54.645Z,45.73
2022-08-17T12:36:24.856Z,46.11
2022-08-17T12:39:13.284Z,45.53
2022-08-17T12:41:46.971Z,46.36
2022-08-17T12:44:18.509Z,45.99
2022-08-17T12:46:51.429Z,45.58
2022-08-17T12:49:39.821Z,45.74
2022-08-17T12:52:20.041Z,45.36
2022-08-17T12:55:12.149Z,45.88
2022-08-17T12:57:42.261Z,44.89
2022-08-17T13:00:20.067Z,45.52
2022-08-17T13:02:51.723Z,45.25
2022-08-17T13:05:31.790Z,44.29
2022-08-17T13:08:00.095Z,45.51
2022-08-17T13:10:33.178Z,45.55
2022-08-17T13:13:19.402Z,45.08
2022-08-17T13:16:00.900Z,45.23
2022-08-17T13:18:45.166Z,44.49
2022-08-17T13:21:27.606Z,43.89
2022-08-17T13:23:59.921Z,43.68
2022-08-17T13:26:36.954Z,44.23
2022-08-17T13:29:21.884Z,43.73
2022-08-17T13:32:01.109Z,43.23
2022-08-17T13:34:56.117Z,43.55
2022-08-17T13:37:33.312Z,42.94
2022-08-17T13:40:02.532Z,43.07
2022-08-17T13:42:50.456Z,42.89
2022-08-17T13:45:36.872Z,43.03
2022-08-17T13:48:20.682Z,42.22
2022-08-17T13:51:05.269Z,42.93
2022-08-17T13:53:51.243Z,42.93
2022-08-17T13:56:39.734Z,42.49
2022-08-17T13:59:14.576Z,41.80
2022-08-17T14:01:42.138Z,42.57
2022-08-17T14:04:34.042Z,43.26
2022-08-17T14:07:09.714Z,43.14
2022-08-17T14:09:46.696Z,43.26
2022-08-17T14:12:17.620Z,43.28
2022-08-17T14:14:45.666Z,43.72
2022-08-17T14:17:13.631Z,43.01
2022-08-17T14:19:41.716Z,43.37
2022-08-17T14:22:18.766Z,43.30
2022-08-17T14:24:46.339Z,43.34
2022-08-17T14:27:13.883Z,43.28
2022-08-17T14:29:46.527Z,43.37
2022-08-17T14:32:20.424Z,44.11
2022-08-17T14:34:49.681Z,43.85
2022-08-17T14:37:19.675Z,44.44
2022-08-17T14:39:47.745Z,44.25
2022-08-17T14:42:17.589Z,44.08
2022-08-17T14:44:45.247Z,44.51
2022-08-17T14:47:15.923Z,44.87
2022-08-17T14:49:47.546Z,45.01
2022-08-17T14:52:21.577Z,44.35
2022-08-17T21:38:57.945Z,72.55
2022-08-17T21:41:30.768Z,72.97
2022-08-17T21:44:18.718Z,73.81
2022-08-17T21:46:50.183Z,73.71
2022-08-17T21:49:21.411Z,74.25
2022-08-17T21:51:55.314Z,74.02
2022-08-17T21:54:22.880Z,75.21
2022-08-17T21:56:50.393Z,75.20
2022-08-17T21:59:35.734Z,74.86
2022-08-17T22:02:07.596Z,75.29
2022-08-17T22:04:40.782Z,75.46
2022-08-17T22:07:13.574Z,75.39
2022-08-17T22:09:50.044Z,75.12
2022-08-17T22:12:22.783Z,74.59
2022-08-17T22:15:00.887Z,74.32
2022-08-17T22:17:45.313Z,73.60
2022-08-17T22:20:18.540Z,74.46
2022-08-17T22:23:15.193Z,72.59
2022-08-17T22:26:06.197Z,73.07
2022-08-17T22:28:42.753Z,72.97
2022-08-17T22:31:14.453Z,71.72
2022-08-17T22:33:44.590Z,71.14
2022-08-17T22:36:26.319Z,71.49
2022-08-17T22:39:09.310Z,71.60
2022-08-17T22:41:55.809Z,71.20
2022-08-17T22:44:28.045Z,71.06
2022-08-17T22:46:57.747Z,71.08
2022-08-17T22:49:54.018Z,70.92
2022-08-17T22:55:43.115Z,70.17
2022-08-17T22:58:31.829Z,70.44
2022-08-17T23:01:22.428Z,69.16
2022-08-17T23:06:24.186Z,69.43
2022-08-17T23:08:56.358Z,67.64
2022-08-17T23:11:36.994Z,67.82
2022-08-17T23:14:15.897Z,69.06
2022-08-17T23:16:43.619Z,68.44
2022-08-17T23:19:12.710Z,67.71
2022-08-17T23:21:40.538Z,67.25
2022-08-17T23:24:09.077Z,68.30
2022-08-17T23:26:38.238Z,68.31
2022-08-17T23:29:06.772Z,68.37
2022-08-17T23:31:36.221Z,68.74
2022-08-17T23:34:09.023Z,69.17
2022-08-17T23:36:36.914Z,69.18
2022-08-17T23:39:05.513Z,69.26
2022-08-17T23:41:36.374Z,70.29
2022-08-17T23:44:05.664Z,70.59
2022-08-17T23:46:34.579Z,70.91
2022-08-17T23:49:03.264Z,70.42
2022-08-17T23:51:38.316Z,71.27
2022-08-17T23:54:37.464Z,70.93
2022-08-17T23:57:05.202Z,71.15
2022-08-17T23:59:33.920Z,71.56
